createdAt,value
2022-12-23T00:01:27.333Z,97629.94
2022-12-23T00:03:58.433Z,97626.31
2022-12-23T00:06:25.650Z,97618.53
2022-12-23T00:08:58.124Z,97617.84
2022-12-23T00:11:25.994Z,97622.28
2022-12-23T00:14:18.150Z,97630.50
2022-12-23T00:16:47.542Z,97641.22
2022-12-23T00:19:14.189Z,97639.25
2022-12-23T00:21:40.898Z,97635.94
2022-12-23T00:24:07.907Z,97629.50
2022-12-23T00:26:34.522Z,97636.47
2022-12-23T00:29:01.543Z,97660.28
2022-12-23T00:31:28.209Z,97659.31
2022-12-23T00:33:54.906Z,97654.03
2022-12-23T00:36:27.699Z,97655.81
2022-12-23T00:39:14.059Z,97648.03
2022-12-23T00:41:59.505Z,97661.97
2022-12-23T00:44:26.483Z,97655.53
2022-12-23T00:46:53.017Z,97663.75
2022-12-23T00:49:39.297Z,97663.75
2022-12-23T00:52:07.723Z,97668.06
2022-12-23T00:54:34.281Z,97663.75
2022-12-23T00:57:01.371Z,97665.44
2022-12-23T00:59:27.926Z,97665.44
2022-12-23T01:02:13.889Z,97652.88
2022-12-23T01:04:59.462Z,97661.25
2022-12-23T01:07:26.124Z,97646.88
2022-12-23T01:09:52.703Z,97659.31
2022-12-23T01:12:19.620Z,97664.59
2022-12-23T01:14:46.345Z,97658.59
2022-12-23T01:17:13.193Z,97667.25
2022-12-23T01:19:39.805Z,97672.38
2022-12-23T01:22:06.440Z,97670.56
2022-12-23T01:24:33.389Z,97664.59
2022-12-23T01:27:00.187Z,97657.06
2022-12-23T01:29:26.794Z,97665.44
2022-12-23T01:31:53.499Z,97655.38
2022-12-23T01:34:20.282Z,97645.53
2022-12-23T01:39:17.380Z,97650.41
2022-12-23T01:42:02.436Z,97642.31
2022-12-23T01:45:04.851Z,97646.13
2022-12-23T01:47:55.766Z,97650.53
2022-12-23T01:50:35.350Z,97645.53
2022-12-23T01:53:11.134Z,97660.38
2022-12-23T01:56:03.497Z,97662.94
2022-12-23T01:58:52.165Z,97660.28
2022-12-23T02:01:37.491Z,97661.09
2022-12-23T02:04:07.999Z,97670.84
2022-12-23T02:06:56.708Z,97663.03
2022-12-23T02:09:24.596Z,97667.50
2022-12-23T02:12:06.383Z,97671.09
2022-12-23T02:15:10.389Z,97668.47
2022-12-23T02:17:55.002Z,97672.06
2022-12-23T02:20:50.621Z,97670.28
2022-12-23T02:23:47.662Z,97673.88
2022-12-23T02:26:20.147Z,97680.94
2022-12-23T02:29:05.521Z,97673.03
2022-12-23T02:31:49.346Z,97676.78
2022-12-23T02:34:27.117Z,97673.69
2022-12-23T02:37:08.508Z,97681.94
2022-12-23T02:39:50.768Z,97680.28
2022-12-23T02:42:30.393Z,97677.06
2022-12-23T02:45:03.368Z,97691.66
2022-12-23T02:47:37.809Z,97687.34
2022-12-23T02:50:11.264Z,97689.28
2022-12-23T02:52:41.190Z,97684.69
2022-12-23T02:55:16.148Z,97687.34
2022-12-23T02:57:47.128Z,97678.84
2022-12-23T03:02:41.377Z,97689.97
2022-12-23T03:05:39.250Z,97683.06
2022-12-23T03:08:12.568Z,97683.88
2022-12-23T03:10:51.347Z,97684.84
2022-12-23T03:13:44.091Z,97688.34
2022-12-23T03:16:28.514Z,97680.09
2022-12-23T03:19:15.504Z,97690.41
2022-12-23T03:21:45.926Z,97687.75
2022-12-23T03:24:31.529Z,97682.84
2022-12-23T03:27:09.473Z,97690.41
2022-12-23T03:29:55.820Z,97693.03
2022-12-23T03:32:24.665Z,97694.81
2022-12-23T03:34:55.400Z,97694.81
2022-12-23T03:37:25.922Z,97697.47
2022-12-23T03:39:58.690Z,97688.72
2022-12-23T03:42:41.390Z,97688.72
2022-12-23T03:48:37.628Z,97681.75
2022-12-23T03:51:11.436Z,97685.63
2022-12-23T03:53:45.418Z,97690.66
2022-12-23T03:56:27.250Z,97687.19
2022-12-23T03:59:02.556Z,97676.03
2022-12-23T04:01:40.083Z,97681.03
2022-12-23T04:04:24.975Z,97674.75
2022-12-23T04:06:57.475Z,97687.28
2022-12-23T04:09:27.509Z,97689.09
2022-12-23T04:11:54.346Z,97675.84
2022-12-23T04:14:22.282Z,97688.38
2022-12-23T04:16:56.151Z,97688.66
2022-12-23T04:19:22.929Z,97676.81
2022-12-23T04:21:49.847Z,97691.16
2022-12-23T04:24:16.434Z,97689.34
2022-12-23T04:26:42.948Z,97680.16
2022-12-23T04:29:09.528Z,97686.84
2022-12-23T04:31:36.108Z,97690.44
2022-12-23T04:34:02.735Z,97689.78
2022-12-23T04:36:29.230Z,97692.28
2022-12-23T04:38:55.966Z,97691.56
2022-12-23T04:41:24.092Z,97692.41
2022-12-23T04:43:53.093Z,97691.56
2022-12-23T04:46:20.385Z,97683.47
2022-12-23T04:48:47.067Z,97689.06
2022-12-23T04:51:13.597Z,97692.50
2022-12-23T04:53:40.352Z,97680.31
2022-12-23T04:56:06.906Z,97680.41
2022-12-23T04:58:33.522Z,97674.31
2022-12-23T05:01:05.973Z,97669.16
2022-12-23T05:03:33.196Z,97672.63
2022-12-23T05:06:00.100Z,97660.38
2022-12-23T05:08:27.295Z,97666.75
2022-12-23T05:10:54.021Z,97668.44
2022-12-23T05:13:21.259Z,97652.59
2022-12-23T05:15:52.428Z,97653.69
2022-12-23T05:18:19.959Z,97655.97
2022-12-23T05:20:46.460Z,97649.13
2022-12-23T05:23:13.188Z,97640.16
2022-12-23T05:25:39.996Z,97651.06
2022-12-23T05:28:10.942Z,97655.53
2022-12-23T05:30:37.602Z,97652.88
2022-12-23T05:33:04.308Z,97639.63
2022-12-23T05:35:31.023Z,97653.25
2022-12-23T05:37:57.813Z,97652.41
2022-12-23T05:40:26.918Z,97664.78
2022-12-23T05:42:57.698Z,97649.31
2022-12-23T05:45:24.231Z,97658.78
2022-12-23T05:47:53.888Z,97646.25
2022-12-23T05:50:20.495Z,97610.25
2022-12-23T05:52:48.440Z,97663.38
2022-12-23T05:55:14.971Z,97649.84
2022-12-23T05:57:41.598Z,97663.50
2022-12-23T06:00:09.488Z,97646.09
2022-12-23T06:02:51.606Z,97655.00
2022-12-23T06:05:20.294Z,97664.44
2022-12-23T06:07:46.834Z,97659.31
2022-12-23T06:10:13.430Z,97654.03
2022-12-23T06:12:40.043Z,97655.00
2022-12-23T06:15:07.399Z,97646.91
2022-12-23T06:17:33.909Z,97658.63
2022-12-23T06:20:00.597Z,97655.97
2022-12-23T06:22:27.113Z,97653.72
2022-12-23T06:24:54.073Z,97656.38
2022-12-23T06:27:20.848Z,97660.69
2022-12-23T06:29:48.138Z,97662.59
2022-12-23T06:32:14.902Z,97664.38
2022-12-23T06:34:41.567Z,97659.09
2022-12-23T06:37:08.437Z,97660.22
2022-12-23T06:39:34.998Z,97655.19
2022-12-23T06:42:01.499Z,97661.06
2022-12-23T06:44:28.137Z,97659.38
2022-12-23T06:46:54.669Z,97661.19
2022-12-23T06:49:21.243Z,97663.84
2022-12-23T06:51:47.825Z,97656.16
2022-12-23T06:54:14.436Z,97656.75
2022-12-23T06:56:40.940Z,97651.84
2022-12-23T06:59:07.626Z,97650.75
2022-12-23T07:01:34.388Z,97660.34
2022-12-23T07:04:01.929Z,97658.66
2022-12-23T07:06:28.763Z,97660.47
2022-12-23T07:08:55.337Z,97656.16
2022-12-23T07:11:21.871Z,97641.63
2022-12-23T07:13:48.926Z,97651.72
2022-12-23T07:16:15.628Z,97655.72
2022-12-23T07:18:42.299Z,97653.53
2022-12-23T07:21:19.765Z,97656.88
2022-12-23T07:23:48.117Z,97662.03
2022-12-23T07:26:14.796Z,97661.88
2022-12-23T07:28:43.963Z,97661.88
2022-12-23T07:31:10.522Z,97658.66
2022-12-23T07:33:37.138Z,97657.47
2022-12-23T07:36:03.877Z,97656.88
2022-12-23T07:38:30.574Z,97655.06
2022-12-23T07:40:57.148Z,97660.22
2022-12-23T07:43:23.880Z,97656.75
2022-12-23T07:45:57.461Z,97662.03
2022-12-23T07:48:26.459Z,97644.28
2022-12-23T07:50:53.017Z,97651.59
2022-12-23T07:53:19.609Z,97660.34
2022-12-23T07:55:48.094Z,97646.44
2022-12-23T07:58:18.272Z,97637.34
2022-12-23T08:00:44.991Z,97641.41
2022-12-23T08:03:12.487Z,97652.56
2022-12-23T08:05:39.108Z,97654.34
2022-12-23T08:08:05.710Z,97658.56
2022-12-23T08:10:32.391Z,97654.09
2022-12-23T08:13:02.411Z,97628.72
2022-12-23T08:15:29.023Z,97645.91
2022-12-23T08:17:56.429Z,97646.63
2022-12-23T08:20:22.982Z,97652.63
2022-12-23T08:22:49.511Z,97648.88
2022-12-23T08:25:16.378Z,97656.53
2022-12-23T08:27:42.853Z,97656.44
2022-12-23T08:30:10.003Z,97657.97
2022-12-23T08:32:36.543Z,97658.66
2022-12-23T08:35:03.185Z,97658.53
2022-12-23T08:37:29.755Z,97655.63
2022-12-23T08:39:56.343Z,97655.53
2022-12-23T08:42:22.960Z,97658.97
2022-12-23T08:44:49.581Z,97656.06
2022-12-23T08:47:16.125Z,97653.31
2022-12-23T08:49:42.654Z,97648.63
2022-12-23T08:52:09.204Z,97650.41
2022-12-23T08:54:35.798Z,97648.34
2022-12-23T08:57:02.321Z,97641.25
2022-12-23T08:59:31.745Z,97639.16
2022-12-23T09:01:59.919Z,97636.41
2022-12-23T09:04:26.598Z,97636.28
2022-12-23T09:06:53.227Z,97630.03
2022-12-23T09:09:19.797Z,97628.09
2022-12-23T09:11:46.311Z,97627.00
2022-12-23T09:14:14.023Z,97623.25
2022-12-23T09:16:40.685Z,97622.28
2022-12-23T09:19:07.952Z,97624.66
2022-12-23T09:21:35.864Z,97614.38
2022-12-23T09:24:02.567Z,97614.66
2022-12-23T09:26:31.464Z,97620.66
2022-12-23T09:28:58.710Z,97595.59
2022-12-23T09:31:30.824Z,97614.94
2022-12-23T09:34:02.685Z,97614.84
2022-12-23T09:36:29.938Z,97604.94
2022-12-23T09:38:58.037Z,97610.97
2022-12-23T09:41:40.456Z,97607.22
2022-12-23T09:44:21.538Z,97604.59
2022-12-23T09:46:53.969Z,97606.97
2022-12-23T09:49:23.799Z,97588.31
2022-12-23T09:51:54.060Z,97575.81
2022-12-23T09:54:31.747Z,97559.97
2022-12-23T09:57:03.698Z,97556.31
2022-12-23T09:59:58.167Z,97547.44
2022-12-23T10:02:30.602Z,97557.88
2022-12-23T10:05:20.934Z,97553.44
2022-12-23T10:07:52.447Z,97559.41
2022-12-23T10:12:47.107Z,97551.19
2022-12-23T10:15:22.213Z,97551.06
2022-12-23T10:17:53.044Z,97551.75
2022-12-23T10:20:29.887Z,97547.44
2022-12-23T10:22:58.872Z,97551.50
2022-12-23T10:25:46.497Z,97556.50
2022-12-23T10:28:13.069Z,97544.97
2022-12-23T10:31:10.642Z,97540.38
2022-12-23T10:34:03.723Z,97549.97
2022-12-23T10:36:44.325Z,97545.53
2022-12-23T10:39:19.723Z,97548.88
2022-12-23T10:41:58.223Z,97548.88
2022-12-23T10:44:44.393Z,97545.22
2022-12-23T10:47:16.800Z,97532.72
2022-12-23T10:50:37.617Z,97535.50
2022-12-23T10:53:10.465Z,97526.88
2022-12-23T10:55:38.611Z,97520.75
2022-12-23T10:58:16.210Z,97480.13
2022-12-23T11:00:48.139Z,97521.72
2022-12-23T11:03:23.955Z,97529.66
2022-12-23T11:05:52.680Z,97529.66
2022-12-23T11:08:22.088Z,97518.13
2022-12-23T11:10:49.166Z,97526.72
2022-12-23T11:13:34.604Z,97524.94
2022-12-23T11:16:26.604Z,97513.25
2022-12-23T11:19:06.124Z,97515.75
2022-12-23T11:21:33.502Z,97513.94
2022-12-23T11:24:09.410Z,97512.94
2022-12-23T11:26:36.450Z,97507.94
2022-12-23T11:29:09.257Z,97518.13
2022-12-23T11:31:36.780Z,97513.50
2022-12-23T11:34:18.105Z,97507.53
2022-12-23T11:36:54.795Z,97513.38
2022-12-23T11:39:27.824Z,97509.06
2022-12-23T11:42:03.426Z,97505.47
2022-12-23T11:44:32.165Z,97502.94
2022-12-23T11:47:18.877Z,97500.28
2022-12-23T11:49:55.122Z,97501.97
2022-12-23T11:52:28.807Z,97502.94
2022-12-23T11:54:57.881Z,97492.09
2022-12-23T11:57:31.647Z,97500.28
2022-12-23T12:00:02.374Z,97503.78
2022-12-23T12:02:37.179Z,97506.44
2022-12-23T12:05:22.920Z,97515.19
2022-12-23T12:07:53.243Z,97504.59
2022-12-23T12:10:28.063Z,97505.47
2022-12-23T12:13:02.547Z,97509.91
2022-12-23T12:15:48.282Z,97514.34
2022-12-23T12:18:19.475Z,97506.69
2022-12-23T12:20:54.572Z,97523.97
2022-12-23T12:23:28.080Z,97522.97
2022-12-23T12:26:00.106Z,97515.88
2022-12-23T12:28:38.709Z,97522.97
2022-12-23T12:31:17.416Z,97518.69
2022-12-23T12:33:50.102Z,97520.31
2022-12-23T12:36:41.299Z,97516.03
2022-12-23T12:39:18.213Z,97514.34
2022-12-23T12:42:00.211Z,97513.50
2022-12-23T12:44:47.933Z,97517.81
2022-12-23T12:47:45.171Z,97513.38
2022-12-23T12:50:16.331Z,97521.72
2022-12-23T12:52:43.425Z,97520.31
2022-12-23T12:55:27.870Z,97520.06
2022-12-23T12:57:54.543Z,97506.13
2022-12-23T13:00:23.300Z,97514.34
2022-12-23T13:03:14.746Z,97513.66
2022-12-23T13:08:05.966Z,97516.69
2022-12-23T13:10:37.692Z,97522.28
2022-12-23T13:13:41.636Z,97527.03
2022-12-23T13:16:14.119Z,97518.09
2022-12-23T13:18:55.363Z,97496.50
2022-12-23T13:21:52.491Z,97526.28
2022-12-23T13:24:41.057Z,97527.66
2022-12-23T13:27:20.386Z,97517.84
2022-12-23T13:30:13.051Z,97523.06
2022-12-23T13:33:06.637Z,97530.66
2022-12-23T13:35:38.984Z,97532.19
2022-12-23T13:38:14.512Z,97538.25
2022-12-23T13:40:59.167Z,97549.03
2022-12-23T13:43:36.008Z,97552.00
2022-12-23T13:46:12.415Z,97553.63
2022-12-23T13:48:47.959Z,97552.63
2022-12-23T13:51:15.101Z,97559.81
2022-12-23T13:54:05.362Z,97554.69
2022-12-23T13:57:09.383Z,97554.81
2022-12-23T13:59:41.796Z,97553.84
2022-12-23T14:04:59.376Z,97560.00
2022-12-23T14:07:28.061Z,97558.03
2022-12-23T14:09:58.345Z,97560.97
2022-12-23T14:12:30.998Z,97561.94
2022-12-23T14:15:12.297Z,97573.09
2022-12-23T14:18:14.139Z,97574.63
2022-12-23T14:21:08.454Z,97571.97
2022-12-23T14:23:59.597Z,97577.81
2022-12-23T14:26:55.846Z,97575.84
2022-12-23T14:30:05.283Z,97579.19
2022-12-23T14:32:47.627Z,97576.72
2022-12-23T14:35:35.465Z,97573.91
2022-12-23T14:38:15.674Z,97580.75
2022-12-23T14:40:42.228Z,97579.91
2022-12-23T14:43:27.719Z,97583.22
2022-12-23T14:45:59.152Z,97586.59
2022-12-23T14:48:47.828Z,97581.28
2022-12-23T14:51:14.403Z,97584.78
2022-12-23T14:53:59.042Z,97583.69
2022-12-23T14:56:43.141Z,97594.13
2022-12-23T14:59:12.458Z,97584.34
2022-12-23T15:01:52.878Z,97600.13
2022-12-23T15:04:27.040Z,97602.59
2022-12-23T15:06:58.853Z,97595.38
2022-12-23T15:09:38.505Z,97601.34
2022-12-23T15:12:16.690Z,97595.09
2022-12-23T15:14:50.149Z,97595.91
2022-12-23T15:17:28.845Z,97598.28
2022-12-23T15:20:11.924Z,97592.84
2022-12-23T15:22:40.564Z,97581.31
2022-12-23T15:25:22.091Z,97590.91
2022-12-23T15:27:49.576Z,97594.28
2022-12-23T15:30:17.163Z,97587.03
2022-12-23T15:32:46.857Z,97579.25
2022-12-23T15:35:19.445Z,97581.47
2022-12-23T15:37:49.677Z,97579.50
2022-12-23T15:40:27.024Z,97582.03
2022-12-23T15:42:54.177Z,97587.31
2022-12-23T15:45:23.532Z,97581.19
2022-12-23T15:47:50.898Z,97579.38
2022-12-23T15:50:18.944Z,97573.25
2022-12-23T15:52:48.661Z,97575.06
2022-12-23T15:55:20.223Z,97581.19
2022-12-23T15:57:50.680Z,97583.72
2022-12-23T16:00:25.545Z,97579.38
2022-12-23T16:03:03.413Z,97580.91
2022-12-23T16:05:35.297Z,97582.72
2022-12-23T16:08:28.659Z,97568.25
2022-12-23T16:10:56.580Z,97577.41
2022-12-23T16:13:23.738Z,97591.50
2022-12-23T16:15:50.387Z,97595.13
2022-12-23T16:18:28.428Z,97595.81
2022-12-23T16:20:59.352Z,97599.28
2022-12-23T16:23:30.804Z,97590.38
2022-12-23T16:26:00.117Z,97589.53
2022-12-23T16:28:31.108Z,97585.91
2022-12-23T16:30:58.548Z,97588.72
2022-12-23T16:33:37.574Z,97596.50
2022-12-23T16:36:27.770Z,97588.56
2022-12-23T16:39:06.697Z,97585.91
2022-12-23T16:41:34.611Z,97585.91
2022-12-23T16:44:01.840Z,97586.78
2022-12-23T16:46:34.012Z,97568.50
2022-12-23T16:49:04.657Z,97573.38
2022-12-23T16:51:33.993Z,97561.69
2022-12-23T16:54:01.120Z,97570.19
2022-12-23T16:56:31.754Z,97580.19
2022-12-23T16:58:58.500Z,97572.13
2022-12-23T17:01:29.728Z,97564.31
2022-12-23T17:03:56.523Z,97572.81
2022-12-23T17:06:23.936Z,97565.03
2022-12-23T17:08:51.282Z,97552.06
2022-12-23T17:11:22.869Z,97574.09
2022-12-23T17:13:49.762Z,97570.03
2022-12-23T17:16:21.837Z,97562.09
2022-12-23T17:18:49.579Z,97530.06
2022-12-23T17:21:19.403Z,97572.25
2022-12-23T17:23:46.184Z,97568.22
2022-12-23T17:26:12.779Z,97562.38
2022-12-23T17:28:39.426Z,97574.34
2022-12-23T17:31:13.728Z,97575.19
2022-12-23T17:33:41.819Z,97571.84
2022-12-23T17:36:13.608Z,97569.19
2022-12-23T17:38:40.278Z,97571.28
2022-12-23T17:41:06.953Z,97578.13
2022-12-23T17:43:33.551Z,97575.63
2022-12-23T17:46:00.156Z,97574.66
2022-12-23T17:48:31.621Z,97577.41
2022-12-23T17:50:58.827Z,97577.41
2022-12-23T17:53:25.348Z,97571.28
2022-12-23T17:55:51.949Z,97583.56
2022-12-23T17:58:19.771Z,97566.00
2022-12-23T18:00:46.613Z,97563.38
2022-12-23T18:03:22.826Z,97567.13
2022-12-23T18:05:54.313Z,97588.00
2022-12-23T18:08:25.873Z,97583.16
2022-12-23T18:10:55.490Z,97582.16
2022-12-23T18:13:22.287Z,97594.53
2022-12-23T18:15:50.049Z,97593.56
2022-12-23T18:18:27.470Z,97590.06
2022-12-23T18:20:58.421Z,97543.44
2022-12-23T18:23:31.309Z,97589.09
2022-12-23T18:25:58.593Z,97589.97
2022-12-23T18:28:25.663Z,97586.75
2022-12-23T18:30:54.749Z,97595.25
2022-12-23T18:33:22.138Z,97597.03
2022-12-23T18:35:50.141Z,97595.25
2022-12-23T18:38:17.785Z,97587.72
2022-12-23T18:40:45.235Z,97589.09
2022-12-23T18:43:23.596Z,97595.38
2022-12-23T18:45:54.369Z,97601.53
2022-12-23T18:48:21.746Z,97597.03
2022-12-23T18:50:48.492Z,97594.13
2022-12-23T18:53:24.626Z,97605.97
2022-12-23T18:55:52.265Z,97603.31
2022-12-23T18:58:19.207Z,97605.13
2022-12-23T19:00:46.579Z,97605.13
2022-12-23T19:03:26.924Z,97607.94
2022-12-23T19:05:54.948Z,97606.25
2022-12-23T19:08:26.836Z,97609.06
2022-12-23T19:10:57.484Z,97612.94
2022-12-23T19:13:24.206Z,97596.66
2022-12-23T19:15:50.884Z,97608.75
2022-12-23T19:18:20.037Z,97611.97
2022-12-23T19:20:48.080Z,97605.00
2022-12-23T19:23:15.785Z,97588.56
2022-12-23T19:25:49.278Z,97613.09
2022-12-23T19:28:21.907Z,97585.34
2022-12-23T19:30:51.577Z,97607.22
2022-12-23T19:33:18.244Z,97608.19
2022-12-23T19:35:45.054Z,97616.13
2022-12-23T19:38:12.326Z,97600.81
2022-12-23T19:40:39.915Z,97599.03
2022-12-23T19:43:06.682Z,97600.41
2022-12-23T19:45:33.858Z,97603.31
2022-12-23T19:48:00.598Z,97599.03
2022-12-23T19:50:27.934Z,97601.94
2022-12-23T19:52:56.191Z,97605.41
2022-12-23T19:55:23.102Z,97623.81
2022-12-23T19:57:49.735Z,97616.84
2022-12-23T20:00:16.786Z,97599.56
2022-12-23T20:02:46.645Z,97609.16
2022-12-23T20:05:13.343Z,97611.81
2022-12-23T20:07:40.397Z,97615.84
2022-12-23T20:10:08.648Z,97626.03
2022-12-23T20:12:35.278Z,97628.69
2022-12-23T20:15:01.923Z,97621.56
2022-12-23T20:17:28.460Z,97618.78
2022-12-23T20:19:55.070Z,97623.81
2022-12-23T20:22:21.809Z,97613.34
2022-12-23T20:24:48.571Z,97611.81
2022-12-23T20:27:16.284Z,97619.50
2022-12-23T20:29:43.679Z,97607.09
2022-12-23T20:32:10.516Z,97615.72
2022-12-23T20:34:39.923Z,97616.44
2022-12-23T20:37:07.762Z,97590.22
2022-12-23T20:39:34.679Z,97595.94
2022-12-23T20:42:01.654Z,97584.53
2022-12-23T20:44:37.033Z,97588.00
2022-12-23T20:47:07.045Z,97592.31
2022-12-23T20:49:33.736Z,97583.41
2022-12-23T20:52:01.210Z,97573.63
2022-12-23T20:54:33.348Z,97572.66
2022-12-23T20:57:02.122Z,97586.75
2022-12-23T20:59:28.801Z,97584.09
2022-12-23T21:01:55.640Z,97573.38
2022-12-23T21:04:22.753Z,97567.25
2022-12-23T21:06:50.804Z,97577.69
2022-12-23T21:09:17.678Z,97580.34
2022-12-23T21:11:46.790Z,97567.94
2022-12-23T21:14:14.409Z,97569.75
2022-12-23T21:16:41.901Z,97561.09
2022-12-23T21:21:35.309Z,97562.47
2022-12-23T21:24:04.270Z,97560.69
2022-12-23T21:26:33.694Z,97566.69
2022-12-23T21:29:01.878Z,97559.72
2022-12-23T21:31:30.947Z,97552.59
2022-12-23T21:33:58.237Z,97548.97
2022-12-23T21:36:31.134Z,97550.81
2022-12-23T21:38:59.232Z,97543.69
2022-12-23T21:41:31.387Z,97545.38
2022-12-23T21:43:59.838Z,97544.38
2022-12-23T21:46:28.372Z,97528.38
2022-12-23T21:48:56.668Z,97533.81
2022-12-23T21:51:25.625Z,97533.66
2022-12-23T21:53:58.806Z,97525.72
2022-12-23T21:56:27.905Z,97522.22
2022-12-23T21:58:56.436Z,97526.53
2022-12-23T22:01:23.859Z,97524.75
2022-12-23T22:03:51.696Z,97528.22
2022-12-23T22:06:26.992Z,97526.53
2022-12-23T22:08:54.540Z,97533.66
2022-12-23T22:11:33.257Z,97532.78
2022-12-23T22:14:01.392Z,97526.69
2022-12-23T22:16:30.068Z,97530.44
2022-12-23T22:18:58.106Z,97530.44
2022-12-23T22:21:25.923Z,97528.78
2022-12-23T22:23:54.252Z,97523.91
2022-12-23T22:26:25.848Z,97517.94
2022-12-23T22:28:58.004Z,97521.41
2022-12-23T22:31:27.786Z,97526.56
2022-12-23T22:33:54.387Z,97522.69
2022-12-23T22:38:56.226Z,97524.47
2022-12-23T22:41:24.388Z,97523.50
2022-12-23T22:43:51.344Z,97521.00
2022-12-23T22:46:18.483Z,97507.38
2022-12-23T22:48:45.708Z,97510.56
2022-12-23T22:51:18.514Z,97498.47
2022-12-23T22:56:00.293Z,97503.88
2022-12-23T22:58:28.811Z,97504.84
2022-12-23T23:00:55.730Z,97501.38
2022-12-23T23:03:22.756Z,97501.38
2022-12-23T23:06:04.698Z,97495.38
2022-12-23T23:08:34.531Z,97498.03
2022-12-23T23:11:03.701Z,97489.44
2022-12-23T23:13:33.747Z,97494.72
2022-12-23T23:16:01.511Z,97498.34
2022-12-23T23:18:28.948Z,97485.38
2022-12-23T23:20:55.592Z,97488.72
2022-12-23T23:23:22.416Z,97488.88
2022-12-23T23:25:51.856Z,97488.31
2022-12-23T23:28:18.770Z,97481.91
2022-12-23T23:30:45.400Z,97484.72
2022-12-23T23:33:12.286Z,97491.78
2022-12-23T23:35:38.926Z,97483.03
2022-12-23T23:38:05.700Z,97491.94
2022-12-23T23:40:32.404Z,97483.41
2022-12-23T23:42:59.023Z,97491.19
2022-12-23T23:45:27.352Z,97498.31
2022-12-23T23:47:55.270Z,97500.97
2022-12-23T23:50:22.012Z,97497.47
2022-12-23T23:52:51.259Z,97491.78
2022-12-23T23:55:17.901Z,97493.28
2022-12-23T23:57:44.476Z,97494.31
